sensor_id;sensor_type;location;lat;lon;timestamp;pressure;altitude;pressure_sealevel;temperature
54306;BMP280;50434;45.188;5.712;2022-09-14T00:01:15;80576.81;;;-141.98
54306;BMP280;50434;45.188;5.712;2022-09-14T00:03:41;80576.81;;;-141.98
54306;BMP280;50434;45.188;5.712;2022-09-14T00:06:09;80576.81;;;-141.98
54306;BMP280;50434;45.188;5.712;2022-09-14T00:08:36;80576.81;;;-141.98
54306;BMP280;50434;45.188;5.712;2022-09-14T00:11:08;80576.81;;;-141.98
54306;BMP280;50434;45.188;5.712;2022-09-14T00:13:34;80576.81;;;-141.98
54306;BMP280;50434;45.188;5.712;2022-09-14T00:16:05;80576.81;;;-141.98
54306;BMP280;50434;45.188;5.712;2022-09-14T00:18:32;80576.81;;;-141.98
54306;BMP280;50434;45.188;5.712;2022-09-14T00:21:04;80576.81;;;-141.98
54306;BMP280;50434;45.188;5.712;2022-09-14T00:23:30;80576.81;;;-141.98
54306;BMP280;50434;45.188;5.712;2022-09-14T00:26:02;80576.81;;;-141.98
54306;BMP280;50434;45.188;5.712;2022-09-14T00:28:28;80576.81;;;-141.98
54306;BMP280;50434;45.188;5.712;2022-09-14T00:30:53;80576.81;;;-141.98
54306;BMP280;50434;45.188;5.712;2022-09-14T00:33:18;80576.81;;;-141.98
54306;BMP280;50434;45.188;5.712;2022-09-14T00:35:44;80576.81;;;-141.98
54306;BMP280;50434;45.188;5.712;2022-09-14T00:38:09;80576.81;;;-141.98
54306;BMP280;50434;45.188;5.712;2022-09-14T00:40:35;80576.81;;;-141.98
54306;BMP280;50434;45.188;5.712;2022-09-14T00:43:01;80576.81;;;-141.98
54306;BMP280;50434;45.188;5.712;2022-09-14T00:45:28;80576.81;;;-141.98
54306;BMP280;50434;45.188;5.712;2022-09-14T00:47:54;80576.81;;;-141.98
54306;BMP280;50434;45.188;5.712;2022-09-14T00:50:21;80576.81;;;-141.98
54306;BMP280;50434;45.188;5.712;2022-09-14T00:52:48;80576.81;;;-141.98
54306;BMP280;50434;45.188;5.712;2022-09-14T00:55:17;80576.81;;;-141.98
54306;BMP280;50434;45.188;5.712;2022-09-14T00:57:46;80576.81;;;-141.98
54306;BMP280;50434;45.188;5.712;2022-09-14T01:00:15;80576.81;;;-141.98
54306;BMP280;50434;45.188;5.712;2022-09-14T01:02:41;80576.81;;;-141.98
54306;BMP280;50434;45.188;5.712;2022-09-14T01:05:08;80576.81;;;-141.98
54306;BMP280;50434;45.188;5.712;2022-09-14T01:08:03;80576.81;;;-141.98
54306;BMP280;50434;45.188;5.712;2022-09-14T01:13:23;80576.81;;;-141.98
54306;BMP280;50434;45.188;5.712;2022-09-14T01:18:29;80576.81;;;-141.98
54306;BMP280;50434;45.188;5.712;2022-09-14T01:28:56;80576.81;;;-141.98
54306;BMP280;50434;45.188;5.712;2022-09-14T01:31:31;80576.81;;;-141.98
54306;BMP280;50434;45.188;5.712;2022-09-14T01:34:25;80576.81;;;-141.98
54306;BMP280;50434;45.188;5.712;2022-09-14T01:36:58;80576.81;;;-141.98
54306;BMP280;50434;45.188;5.712;2022-09-14T01:39:28;80576.81;;;-141.98
54306;BMP280;50434;45.188;5.712;2022-09-14T01:41:56;80576.81;;;-141.98
54306;BMP280;50434;45.188;5.712;2022-09-14T01:44:29;80576.81;;;-141.98
54306;BMP280;50434;45.188;5.712;2022-09-14T01:47:17;80576.81;;;-141.98
54306;BMP280;50434;45.188;5.712;2022-09-14T01:49:49;80576.81;;;-141.98
54306;BMP280;50434;45.188;5.712;2022-09-14T01:52:24;80576.81;;;-141.98
54306;BMP280;50434;45.188;5.712;2022-09-14T01:57:27;80576.81;;;-141.98
54306;BMP280;50434;45.188;5.712;2022-09-14T02:00:00;80576.81;;;-141.98
54306;BMP280;50434;45.188;5.712;2022-09-14T02:02:31;80576.81;;;-141.98
54306;BMP280;50434;45.188;5.712;2022-09-14T02:07:38;80576.81;;;-141.98
54306;BMP280;50434;45.188;5.712;2022-09-14T02:10:08;80576.81;;;-141.98
54306;BMP280;50434;45.188;5.712;2022-09-14T02:12:36;80576.81;;;-141.98
54306;BMP280;50434;45.188;5.712;2022-09-14T02:15:03;80576.81;;;-141.98
54306;BMP280;50434;45.188;5.712;2022-09-14T02:17:28;80576.81;;;-141.98
54306;BMP280;50434;45.188;5.712;2022-09-14T02:19:57;80576.81;;;-141.98
54306;BMP280;50434;45.188;5.712;2022-09-14T02:22:25;80576.81;;;-141.98
54306;BMP280;50434;45.188;5.712;2022-09-14T02:24:52;80576.81;;;-141.98
54306;BMP280;50434;45.188;5.712;2022-09-14T02:27:18;80576.81;;;-141.98
54306;BMP280;50434;45.188;5.712;2022-09-14T02:29:44;80576.81;;;-141.98
54306;BMP280;50434;45.188;5.712;2022-09-14T02:35:00;80576.81;;;-141.98
54306;BMP280;50434;45.188;5.712;2022-09-14T02:37:39;80576.81;;;-141.98
54306;BMP280;50434;45.188;5.712;2022-09-14T02:40:36;80576.81;;;-141.98
54306;BMP280;50434;45.188;5.712;2022-09-14T02:46:16;80576.81;;;-141.98
54306;BMP280;50434;45.188;5.712;2022-09-14T02:51:33;80576.81;;;-141.98
54306;BMP280;50434;45.188;5.712;2022-09-14T02:54:10;80576.81;;;-141.98
54306;BMP280;50434;45.188;5.712;2022-09-14T02:56:37;80576.81;;;-141.98
54306;BMP280;50434;45.188;5.712;2022-09-14T02:59:03;80576.81;;;-141.98
54306;BMP280;50434;45.188;5.712;2022-09-14T03:01:28;80576.81;;;-141.98
54306;BMP280;50434;45.188;5.712;2022-09-14T03:03:54;80576.81;;;-141.98
54306;BMP280;50434;45.188;5.712;2022-09-14T03:06:19;80576.81;;;-141.98
54306;BMP280;50434;45.188;5.712;2022-09-14T03:08:46;80576.81;;;-141.98
54306;BMP280;50434;45.188;5.712;2022-09-14T03:11:12;80576.81;;;-141.98
54306;BMP280;50434;45.188;5.712;2022-09-14T03:13:37;80576.81;;;-141.98
54306;BMP280;50434;45.188;5.712;2022-09-14T03:16:07;80576.81;;;-141.98
54306;BMP280;50434;45.188;5.712;2022-09-14T03:18:34;80576.81;;;-141.98
54306;BMP280;50434;45.188;5.712;2022-09-14T03:21:11;80576.81;;;-141.98
54306;BMP280;50434;45.188;5.712;2022-09-14T03:23:42;80576.81;;;-141.98
54306;BMP280;50434;45.188;5.712;2022-09-14T03:26:09;80576.81;;;-141.98
54306;BMP280;50434;45.188;5.712;2022-09-14T03:28:36;80576.81;;;-141.98
54306;BMP280;50434;45.188;5.712;2022-09-14T03:31:04;80576.81;;;-141.98
54306;BMP280;50434;45.188;5.712;2022-09-14T03:33:29;80576.81;;;-141.98
54306;BMP280;50434;45.188;5.712;2022-09-14T03:35:55;80576.81;;;-141.98
54306;BMP280;50434;45.188;5.712;2022-09-14T03:38:21;80576.81;;;-141.98
54306;BMP280;50434;45.188;5.712;2022-09-14T03:40:46;80576.81;;;-141.98
54306;BMP280;50434;45.188;5.712;2022-09-14T03:43:13;80576.81;;;-141.98
54306;BMP280;50434;45.188;5.712;2022-09-14T03:45:38;80576.81;;;-141.98
54306;BMP280;50434;45.188;5.712;2022-09-14T03:48:04;80576.81;;;-141.98
54306;BMP280;50434;45.188;5.712;2022-09-14T03:50:30;80576.81;;;-141.98
54306;BMP280;50434;45.188;5.712;2022-09-14T03:52:55;80576.81;;;-141.98
54306;BMP280;50434;45.188;5.712;2022-09-14T03:55:21;80576.81;;;-141.98
54306;BMP280;50434;45.188;5.712;2022-09-14T03:57:46;80576.81;;;-141.98
54306;BMP280;50434;45.188;5.712;2022-09-14T04:00:12;80576.81;;;-141.98
54306;BMP280;50434;45.188;5.712;2022-09-14T04:02:38;80576.81;;;-141.98
54306;BMP280;50434;45.188;5.712;2022-09-14T04:05:04;80576.81;;;-141.98
54306;BMP280;50434;45.188;5.712;2022-09-14T04:07:30;80576.81;;;-141.98
54306;BMP280;50434;45.188;5.712;2022-09-14T04:09:55;80576.81;;;-141.98
54306;BMP280;50434;45.188;5.712;2022-09-14T04:12:21;80576.81;;;-141.98
54306;BMP280;50434;45.188;5.712;2022-09-14T04:14:46;80576.81;;;-141.98
54306;BMP280;50434;45.188;5.712;2022-09-14T04:17:12;80576.81;;;-141.98
54306;BMP280;50434;45.188;5.712;2022-09-14T04:19:37;80576.81;;;-141.98
54306;BMP280;50434;45.188;5.712;2022-09-14T04:22:06;80576.81;;;-141.98
54306;BMP280;50434;45.188;5.712;2022-09-14T04:24:31;80576.81;;;-141.98
54306;BMP280;50434;45.188;5.712;2022-09-14T04:26:57;80576.81;;;-141.98
54306;BMP280;50434;45.188;5.712;2022-09-14T04:29:22;80576.81;;;-141.98
54306;BMP280;50434;45.188;5.712;2022-09-14T04:31:48;80576.81;;;-141.98
54306;BMP280;50434;45.188;5.712;2022-09-14T04:34:13;80576.81;;;-141.98
54306;BMP280;50434;45.188;5.712;2022-09-14T04:36:39;80576.81;;;-141.98
54306;BMP280;50434;45.188;5.712;2022-09-14T04:39:04;80576.81;;;-141.98
54306;BMP280;50434;45.188;5.712;2022-09-14T04:41:31;80576.81;;;-141.98
54306;BMP280;50434;45.188;5.712;2022-09-14T04:43:57;80576.81;;;-141.98
54306;BMP280;50434;45.188;5.712;2022-09-14T04:46:29;80576.81;;;-141.98
54306;BMP280;50434;45.188;5.712;2022-09-14T04:48:54;80576.81;;;-141.98
54306;BMP280;50434;45.188;5.712;2022-09-14T04:51:22;80576.81;;;-141.98
54306;BMP280;50434;45.188;5.712;2022-09-14T04:53:50;80576.81;;;-141.98
54306;BMP280;50434;45.188;5.712;2022-09-14T04:56:17;80576.81;;;-141.98
54306;BMP280;50434;45.188;5.712;2022-09-14T04:58:45;80576.81;;;-141.98
54306;BMP280;50434;45.188;5.712;2022-09-14T05:01:13;80576.81;;;-141.98
54306;BMP280;50434;45.188;5.712;2022-09-14T05:03:40;80576.81;;;-141.98
54306;BMP280;50434;45.188;5.712;2022-09-14T05:06:12;80576.81;;;-141.98
54306;BMP280;50434;45.188;5.712;2022-09-14T05:08:38;80576.81;;;-141.98
54306;BMP280;50434;45.188;5.712;2022-09-14T05:11:05;80576.81;;;-141.98
54306;BMP280;50434;45.188;5.712;2022-09-14T05:13:31;80576.81;;;-141.98
54306;BMP280;50434;45.188;5.712;2022-09-14T05:16:08;80576.81;;;-141.98
54306;BMP280;50434;45.188;5.712;2022-09-14T05:18:34;80576.81;;;-141.98
54306;BMP280;50434;45.188;5.712;2022-09-14T05:21:04;80576.81;;;-141.98
54306;BMP280;50434;45.188;5.712;2022-09-14T05:23:30;80576.81;;;-141.98
54306;BMP280;50434;45.188;5.712;2022-09-14T05:25:56;80576.81;;;-141.98
54306;BMP280;50434;45.188;5.712;2022-09-14T05:28:22;80576.81;;;-141.98
54306;BMP280;50434;45.188;5.712;2022-09-14T05:30:48;80576.81;;;-141.98
54306;BMP280;50434;45.188;5.712;2022-09-14T05:33:13;80576.81;;;-141.98
54306;BMP280;50434;45.188;5.712;2022-09-14T05:35:39;80576.81;;;-141.98
54306;BMP280;50434;45.188;5.712;2022-09-14T05:38:05;80576.81;;;-141.98
54306;BMP280;50434;45.188;5.712;2022-09-14T05:40:30;80576.81;;;-141.98
54306;BMP280;50434;45.188;5.712;2022-09-14T05:42:56;80576.81;;;-141.98
54306;BMP280;50434;45.188;5.712;2022-09-14T05:45:21;80576.81;;;-141.98
54306;BMP280;50434;45.188;5.712;2022-09-14T05:47:46;80576.81;;;-141.98
54306;BMP280;50434;45.188;5.712;2022-09-14T05:50:12;80576.81;;;-141.98
54306;BMP280;50434;45.188;5.712;2022-09-14T05:52:39;80576.81;;;-141.98
54306;BMP280;50434;45.188;5.712;2022-09-14T05:55:04;80576.81;;;-141.98
54306;BMP280;50434;45.188;5.712;2022-09-14T05:57:30;80576.81;;;-141.98
54306;BMP280;50434;45.188;5.712;2022-09-14T05:59:55;80576.81;;;-141.98
54306;BMP280;50434;45.188;5.712;2022-09-14T06:02:20;80576.81;;;-141.98
54306;BMP280;50434;45.188;5.712;2022-09-14T06:04:46;80576.81;;;-141.98
54306;BMP280;50434;45.188;5.712;2022-09-14T06:07:11;80576.81;;;-141.98
54306;BMP280;50434;45.188;5.712;2022-09-14T06:09:36;80576.81;;;-141.98
54306;BMP280;50434;45.188;5.712;2022-09-14T06:12:02;80576.81;;;-141.98
54306;BMP280;50434;45.188;5.712;2022-09-14T06:14:27;80576.81;;;-141.98
54306;BMP280;50434;45.188;5.712;2022-09-14T06:16:53;80576.81;;;-141.98
54306;BMP280;50434;45.188;5.712;2022-09-14T06:19:18;80576.81;;;-141.98
54306;BMP280;50434;45.188;5.712;2022-09-14T06:21:44;80576.81;;;-141.98
54306;BMP280;50434;45.188;5.712;2022-09-14T06:24:10;80576.81;;;-141.98
54306;BMP280;50434;45.188;5.712;2022-09-14T06:26:39;80576.81;;;-141.98
54306;BMP280;50434;45.188;5.712;2022-09-14T06:29:05;80576.81;;;-141.98
54306;BMP280;50434;45.188;5.712;2022-09-14T06:31:30;80576.81;;;-141.98
54306;BMP280;50434;45.188;5.712;2022-09-14T06:33:55;80576.81;;;-141.98
54306;BMP280;50434;45.188;5.712;2022-09-14T06:36:23;80576.81;;;-141.98
54306;BMP280;50434;45.188;5.712;2022-09-14T06:38:50;80576.81;;;-141.98
54306;BMP280;50434;45.188;5.712;2022-09-14T06:41:18;80576.81;;;-141.98
54306;BMP280;50434;45.188;5.712;2022-09-14T06:43:45;80576.81;;;-141.98
54306;BMP280;50434;45.188;5.712;2022-09-14T06:46:17;80576.81;;;-141.98
54306;BMP280;50434;45.188;5.712;2022-09-14T06:48:46;80576.81;;;-141.98
54306;BMP280;50434;45.188;5.712;2022-09-14T06:53:37;80576.81;;;-141.98
54306;BMP280;50434;45.188;5.712;2022-09-14T06:56:02;80576.81;;;-141.98
54306;BMP280;50434;45.188;5.712;2022-09-14T06:58:29;80576.81;;;-141.98
54306;BMP280;50434;45.188;5.712;2022-09-14T07:01:00;80576.81;;;-141.98
54306;BMP280;50434;45.188;5.712;2022-09-14T07:03:25;80576.81;;;-141.98
54306;BMP280;50434;45.188;5.712;2022-09-14T07:05:51;80576.81;;;-141.98
54306;BMP280;50434;45.188;5.712;2022-09-14T07:08:16;80576.81;;;-141.98
54306;BMP280;50434;45.188;5.712;2022-09-14T07:10:42;80576.81;;;-141.98
54306;BMP280;50434;45.188;5.712;2022-09-14T07:13:08;80576.81;;;-141.98
54306;BMP280;50434;45.188;5.712;2022-09-14T07:15:33;80576.81;;;-141.98
54306;BMP280;50434;45.188;5.712;2022-09-14T07:17:59;80576.81;;;-141.98
54306;BMP280;50434;45.188;5.712;2022-09-14T07:20:24;80576.81;;;-141.98
54306;BMP280;50434;45.188;5.712;2022-09-14T07:22:50;80576.81;;;-141.98
54306;BMP280;50434;45.188;5.712;2022-09-14T07:25:15;80576.81;;;-141.98
54306;BMP280;50434;45.188;5.712;2022-09-14T07:27:40;80576.81;;;-141.98
54306;BMP280;50434;45.188;5.712;2022-09-14T07:30:06;80576.81;;;-141.98
54306;BMP280;50434;45.188;5.712;2022-09-14T07:32:32;80576.81;;;-141.98
54306;BMP280;50434;45.188;5.712;2022-09-14T07:34:58;80576.81;;;-141.98
54306;BMP280;50434;45.188;5.712;2022-09-14T07:37:23;80576.81;;;-141.98
54306;BMP280;50434;45.188;5.712;2022-09-14T07:39:48;80576.81;;;-141.98
54306;BMP280;50434;45.188;5.712;2022-09-14T07:42:17;80576.81;;;-141.98
54306;BMP280;50434;45.188;5.712;2022-09-14T07:44:42;80576.81;;;-141.98
54306;BMP280;50434;45.188;5.712;2022-09-14T07:47:08;80576.81;;;-141.98
54306;BMP280;50434;45.188;5.712;2022-09-14T07:49:33;80576.81;;;-141.98
54306;BMP280;50434;45.188;5.712;2022-09-14T07:51:58;80576.81;;;-141.98
54306;BMP280;50434;45.188;5.712;2022-09-14T07:54:24;80576.81;;;-141.98
54306;BMP280;50434;45.188;5.712;2022-09-14T07:56:49;80576.81;;;-141.98
54306;BMP280;50434;45.188;5.712;2022-09-14T07:59:15;80576.81;;;-141.98
54306;BMP280;50434;45.188;5.712;2022-09-14T08:01:40;80576.81;;;-141.98
54306;BMP280;50434;45.188;5.712;2022-09-14T08:04:06;98659.09;;;26.04
54306;BMP280;50434;45.188;5.712;2022-09-14T08:06:34;98788.44;;;21.87
54306;BMP280;50434;45.188;5.712;2022-09-14T08:09:05;98784.28;;;21.86
54306;BMP280;50434;45.188;5.712;2022-09-14T08:11:31;98775.94;;;21.86
54306;BMP280;50434;45.188;5.712;2022-09-14T08:14:08;98765.44;;;21.85
54306;BMP280;50434;45.188;5.712;2022-09-14T08:16:34;98763.38;;;21.85
54306;BMP280;50434;45.188;5.712;2022-09-14T08:19:02;98756.00;;;21.90
54306;BMP280;50434;45.188;5.712;2022-09-14T08:21:28;98746.13;;;21.87
54306;BMP280;50434;45.188;5.712;2022-09-14T08:23:54;98732.13;;;21.85
54306;BMP280;50434;45.188;5.712;2022-09-14T08:26:22;98742.50;;;21.84
54306;BMP280;50434;45.188;5.712;2022-09-14T08:28:50;98735.63;;;21.85
54306;BMP280;50434;45.188;5.712;2022-09-14T08:31:18;98735.72;;;21.87
54306;BMP280;50434;45.188;5.712;2022-09-14T08:33:47;98728.13;;;21.88
54306;BMP280;50434;45.188;5.712;2022-09-14T08:36:15;98718.25;;;21.85
54306;BMP280;50434;45.188;5.712;2022-09-14T08:38:41;98730.88;;;21.88
54306;BMP280;50434;45.188;5.712;2022-09-14T08:43:45;98728.97;;;21.90
54306;BMP280;50434;45.188;5.712;2022-09-14T08:46:24;98727.75;;;21.93
54306;BMP280;50434;45.188;5.712;2022-09-14T08:48:51;98718.69;;;21.93
54306;BMP280;50434;45.188;5.712;2022-09-14T08:51:17;98706.03;;;21.90
54306;BMP280;50434;45.188;5.712;2022-09-14T08:53:43;98722.19;;;21.93
54306;BMP280;50434;45.188;5.712;2022-09-14T08:56:23;98726.00;;;22.00
54306;BMP280;50434;45.188;5.712;2022-09-14T09:09:50;98719.13;;;22.14
54306;BMP280;50434;45.188;5.712;2022-09-14T09:12:21;98715.03;;;22.15
54306;BMP280;50434;45.188;5.712;2022-09-14T09:14:59;98704.66;;;22.16
54306;BMP280;50434;45.188;5.712;2022-09-14T09:17:37;98724.91;;;22.18
54306;BMP280;50434;45.188;5.712;2022-09-14T09:23:07;98719.28;;;22.30
54306;BMP280;50434;45.188;5.712;2022-09-14T09:28:18;98708.34;;;22.34
54306;BMP280;50434;45.188;5.712;2022-09-14T09:30:44;98688.03;;;22.43
54306;BMP280;50434;45.188;5.712;2022-09-14T09:33:20;98693.75;;;22.47
54306;BMP280;50434;45.188;5.712;2022-09-14T09:35:46;98683.38;;;22.47
54306;BMP280;50434;45.188;5.712;2022-09-14T09:38:15;98691.31;;;22.53
54306;BMP280;50434;45.188;5.712;2022-09-14T09:40:49;98693.75;;;22.60
54306;BMP280;50434;45.188;5.712;2022-09-14T09:43:18;98680.28;;;22.69
54306;BMP280;50434;45.188;5.712;2022-09-14T09:45:56;98669.44;;;22.75
54306;BMP280;50434;45.188;5.712;2022-09-14T09:48:52;98665.84;;;22.86
54306;BMP280;50434;45.188;5.712;2022-09-14T09:51:25;98671.66;;;23.05
54306;BMP280;50434;45.188;5.712;2022-09-14T09:53:54;98662.09;;;23.24
54306;BMP280;50434;45.188;5.712;2022-09-14T09:56:29;98667.59;;;23.37
54306;BMP280;50434;45.188;5.712;2022-09-14T09:58:55;98660.66;;;23.36
54306;BMP280;50434;45.188;5.712;2022-09-14T10:01:27;98647.00;;;23.42
54306;BMP280;50434;45.188;5.712;2022-09-14T10:06:27;98632.47;;;23.44
54306;BMP280;50434;45.188;5.712;2022-09-14T10:08:55;98631.03;;;23.43
54306;BMP280;50434;45.188;5.712;2022-09-14T10:11:28;98621.31;;;23.44
54306;BMP280;50434;45.188;5.712;2022-09-14T10:13:55;98622.56;;;23.41
54306;BMP280;50434;45.188;5.712;2022-09-14T10:16:23;98633.28;;;23.46
54306;BMP280;50434;45.188;5.712;2022-09-14T10:18:51;98619.44;;;23.48
54306;BMP280;50434;45.188;5.712;2022-09-14T10:21:22;98622.22;;;23.48
54306;BMP280;50434;45.188;5.712;2022-09-14T10:24:15;98619.72;;;23.54
54306;BMP280;50434;45.188;5.712;2022-09-14T10:26:41;98606.63;;;23.57
54306;BMP280;50434;45.188;5.712;2022-09-14T10:29:36;98610.22;;;23.59
54306;BMP280;50434;45.188;5.712;2022-09-14T10:32:20;98601.97;;;23.61
54306;BMP280;50434;45.188;5.712;2022-09-14T10:34:47;98612.56;;;23.65
54306;BMP280;50434;45.188;5.712;2022-09-14T10:40:12;98586.31;;;23.70
54306;BMP280;50434;45.188;5.712;2022-09-14T10:43:12;98581.47;;;23.70
54306;BMP280;50434;45.188;5.712;2022-09-14T10:45:42;98593.50;;;23.75
54306;BMP280;50434;45.188;5.712;2022-09-14T10:56:41;98572.47;;;23.88
54306;BMP280;50434;45.188;5.712;2022-09-14T11:04:58;98582.34;;;23.91
54306;BMP280;50434;45.188;5.712;2022-09-14T11:07:38;98574.88;;;23.95
54306;BMP280;50434;45.188;5.712;2022-09-14T11:23:48;98608.47;;;24.15
54306;BMP280;50434;45.188;5.712;2022-09-14T11:28:55;98619.66;;;24.32
54306;BMP280;50434;45.188;5.712;2022-09-14T11:31:38;98617.84;;;24.39
54306;BMP280;50434;45.188;5.712;2022-09-14T11:34:23;98607.16;;;24.51
54306;BMP280;50434;45.188;5.712;2022-09-14T11:37:10;98621.81;;;24.67
54306;BMP280;50434;45.188;5.712;2022-09-14T11:39:44;98602.03;;;24.78
54306;BMP280;50434;45.188;5.712;2022-09-14T11:45:44;98604.19;;;24.98
54306;BMP280;50434;45.188;5.712;2022-09-14T11:48:42;98595.56;;;25.09
54306;BMP280;50434;45.188;5.712;2022-09-14T11:51:15;98591.16;;;25.22
54306;BMP280;50434;45.188;5.712;2022-09-14T11:53:42;98592.88;;;25.31
54306;BMP280;50434;45.188;5.712;2022-09-14T11:56:24;98582.59;;;25.35
54306;BMP280;50434;45.188;5.712;2022-09-14T11:58:53;98562.56;;;25.41
54306;BMP280;50434;45.188;5.712;2022-09-14T12:01:26;98563.06;;;25.55
54306;BMP280;50434;45.188;5.712;2022-09-14T12:04:03;98552.06;;;25.59
54306;BMP280;50434;45.188;5.712;2022-09-14T12:11:49;98560.16;;;25.70
54306;BMP280;50434;45.188;5.712;2022-09-14T12:19:39;98558.28;;;25.77
54306;BMP280;50434;45.188;5.712;2022-09-14T12:22:17;98546.19;;;25.92
54306;BMP280;50434;45.188;5.712;2022-09-14T12:24:43;98550.59;;;25.97
54306;BMP280;50434;45.188;5.712;2022-09-14T12:27:20;98546.53;;;26.02
54306;BMP280;50434;45.188;5.712;2022-09-14T12:29:46;98543.84;;;26.04
54306;BMP280;50434;45.188;5.712;2022-09-14T12:32:39;98557.69;;;26.00
54306;BMP280;50434;45.188;5.712;2022-09-14T12:37:59;98557.38;;;25.92
54306;BMP280;50434;45.188;5.712;2022-09-14T12:40:44;98553.25;;;25.93
54306;BMP280;50434;45.188;5.712;2022-09-14T12:46:29;98543.19;;;26.05
54306;BMP280;50434;45.188;5.712;2022-09-14T12:48:59;98562.16;;;26.09
54306;BMP280;50434;45.188;5.712;2022-09-14T12:59:20;98545.53;;;26.35
54306;BMP280;50434;45.188;5.712;2022-09-14T13:04:43;98538.19;;;26.45
54306;BMP280;50434;45.188;5.712;2022-09-14T13:07:14;98534.97;;;26.55
54306;BMP280;50434;45.188;5.712;2022-09-14T13:09:46;98535.25;;;26.63
54306;BMP280;50434;45.188;5.712;2022-09-14T13:12:14;98536.19;;;26.71
54306;BMP280;50434;45.188;5.712;2022-09-14T13:14:52;98534.94;;;26.76
54306;BMP280;50434;45.188;5.712;2022-09-14T13:17:18;98544.19;;;26.81
54306;BMP280;50434;45.188;5.712;2022-09-14T13:19:54;98539.97;;;26.80
54306;BMP280;50434;45.188;5.712;2022-09-14T13:22:24;98532.47;;;26.86
54306;BMP280;50434;45.188;5.712;2022-09-14T13:24:51;98533.81;;;26.85
54306;BMP280;50434;45.188;5.712;2022-09-14T13:27:31;98536.56;;;26.83
54306;BMP280;50434;45.188;5.712;2022-09-14T13:32:23;98539.56;;;26.91
54306;BMP280;50434;45.188;5.712;2022-09-14T13:34:49;98539.09;;;26.97
54306;BMP280;50434;45.188;5.712;2022-09-14T13:37:18;98541.91;;;26.99
54306;BMP280;50434;45.188;5.712;2022-09-14T13:39:50;98534.25;;;26.99
54306;BMP280;50434;45.188;5.712;2022-09-14T13:42:16;98530.16;;;27.04
54306;BMP280;50434;45.188;5.712;2022-09-14T13:44:43;98531.69;;;27.07
54306;BMP280;50434;45.188;5.712;2022-09-14T13:47:12;98528.22;;;27.09
54306;BMP280;50434;45.188;5.712;2022-09-14T13:49:39;98515.72;;;27.12
54306;BMP280;50434;45.188;5.712;2022-09-14T13:52:26;98510.88;;;27.14
54306;BMP280;50434;45.188;5.712;2022-09-14T13:54:54;98519.34;;;27.16
54306;BMP280;50434;45.188;5.712;2022-09-14T13:57:23;98518.81;;;27.22
54306;BMP280;50434;45.188;5.712;2022-09-14T14:02:46;98502.72;;;27.22
54306;BMP280;50434;45.188;5.712;2022-09-14T14:05:26;98509.69;;;27.21
54306;BMP280;50434;45.188;5.712;2022-09-14T14:07:54;98502.66;;;27.20
54306;BMP280;50434;45.188;5.712;2022-09-14T14:10:33;98508.31;;;27.22
54306;BMP280;50434;45.188;5.712;2022-09-14T14:13:01;98503.41;;;27.23
54306;BMP280;50434;45.188;5.712;2022-09-14T14:17:55;98498.59;;;27.25
54306;BMP280;50434;45.188;5.712;2022-09-14T14:20:33;98497.28;;;27.28
54306;BMP280;50434;45.188;5.712;2022-09-14T14:25:30;98494.47;;;27.28
54306;BMP280;50434;45.188;5.712;2022-09-14T14:28:01;98495.97;;;27.31
54306;BMP280;50434;45.188;5.712;2022-09-14T14:30:28;98489.69;;;27.33
54306;BMP280;50434;45.188;5.712;2022-09-14T14:32:55;98481.97;;;27.31
54306;BMP280;50434;45.188;5.712;2022-09-14T14:35:29;98483.34;;;27.30
54306;BMP280;50434;45.188;5.712;2022-09-14T14:37:56;98481.19;;;27.29
54306;BMP280;50434;45.188;5.712;2022-09-14T14:40:22;98488.88;;;27.28
54306;BMP280;50434;45.188;5.712;2022-09-14T14:42:50;98488.25;;;27.32
54306;BMP280;50434;45.188;5.712;2022-09-14T14:45:22;98497.28;;;27.28
54306;BMP280;50434;45.188;5.712;2022-09-14T14:47:51;98491.63;;;27.26
54306;BMP280;50434;45.188;5.712;2022-09-14T14:50:22;98489.56;;;27.29
54306;BMP280;50434;45.188;5.712;2022-09-14T14:52:48;98489.56;;;27.29
54306;BMP280;50434;45.188;5.712;2022-09-14T14:55:16;98476.31;;;27.29
54306;BMP280;50434;45.188;5.712;2022-09-14T14:57:41;98470.00;;;27.29
54306;BMP280;50434;45.188;5.712;2022-09-14T15:00:14;98472.09;;;27.28
54306;BMP280;50434;45.188;5.712;2022-09-14T15:02:40;98479.00;;;27.25
54306;BMP280;50434;45.188;5.712;2022-09-14T15:05:06;98472.63;;;27.23
54306;BMP280;50434;45.188;5.712;2022-09-14T15:07:31;98473.34;;;27.23
54306;BMP280;50434;45.188;5.712;2022-09-14T15:09:57;98466.16;;;27.16
54306;BMP280;50434;45.188;5.712;2022-09-14T15:12:23;98462.00;;;27.17
54306;BMP280;50434;45.188;5.712;2022-09-14T15:14:48;98464.00;;;27.15
54306;BMP280;50434;45.188;5.712;2022-09-14T15:17:14;98450.03;;;27.15
54306;BMP280;50434;45.188;5.712;2022-09-14T15:19:39;98453.53;;;27.15
54306;BMP280;50434;45.188;5.712;2022-09-14T15:22:04;98459.00;;;27.11
54306;BMP280;50434;45.188;5.712;2022-09-14T15:24:30;98461.66;;;27.05
54306;BMP280;50434;45.188;5.712;2022-09-14T15:26:55;98452.50;;;27.03
54306;BMP280;50434;45.188;5.712;2022-09-14T15:29:21;98444.75;;;27.01
54306;BMP280;50434;45.188;5.712;2022-09-14T15:31:48;98451.78;;;27.02
54306;BMP280;50434;45.188;5.712;2022-09-14T15:34:14;98457.34;;;27.00
54306;BMP280;50434;45.188;5.712;2022-09-14T15:36:48;98451.66;;;26.98
54306;BMP280;50434;45.188;5.712;2022-09-14T15:39:22;98466.25;;;26.95
54306;BMP280;50434;45.188;5.712;2022-09-14T15:41:48;98452.78;;;26.87
54306;BMP280;50434;45.188;5.712;2022-09-14T15:44:15;98444.91;;;26.82
54306;BMP280;50434;45.188;5.712;2022-09-14T15:46:40;98463.88;;;26.85
54306;BMP280;50434;45.188;5.712;2022-09-14T15:49:18;98459.75;;;26.88
54306;BMP280;50434;45.188;5.712;2022-09-14T15:51:46;98464.03;;;26.91
54306;BMP280;50434;45.188;5.712;2022-09-14T15:54:12;98463.97;;;26.87
54306;BMP280;50434;45.188;5.712;2022-09-14T15:56:38;98461.88;;;26.88
54306;BMP280;50434;45.188;5.712;2022-09-14T15:59:04;98468.25;;;26.90
54306;BMP280;50434;45.188;5.712;2022-09-14T16:01:30;98477.41;;;26.93
54306;BMP280;50434;45.188;5.712;2022-09-14T16:03:57;98472.44;;;26.91
54306;BMP280;50434;45.188;5.712;2022-09-14T16:06:23;98476.53;;;26.88
54306;BMP280;50434;45.188;5.712;2022-09-14T16:08:48;98480.75;;;26.87
54306;BMP280;50434;45.188;5.712;2022-09-14T16:11:14;98483.34;;;26.81
54306;BMP280;50434;45.188;5.712;2022-09-14T16:13:39;98485.38;;;26.79